NKS207 KFLL-KEWR
Flight info
| Callsign | NKS207 |
|---|---|
| Flight time | 2h 16m |
| Altitude | 33000 |
| Route | FEALX2 ETECK GRUBR Y299 SEELO GARIC Q129 AARNN QUART PHLBO4 |
| Aircraft | A321/M-SDE3FGHIRWY/LB1 |
Departure
| Time | 2026-05-04 00:00 |
|---|---|
| Airport | Fort Lauderdale Hollywood International Airport (KFLL) |
Arrival
| Time | 2026-05-04 02:17 |
|---|---|
| Airport | Newark Liberty International Airport (KEWR) |
| Time | Latitude | Longitude | Altitude | Speed | Heading |
|---|---|---|---|---|---|
| 2026-05-03 22:59 | 26.06879 | -80.14211 | 16 ft | 0 kts | 0° |
| 2026-05-03 23:11 | 26.06872 | -80.14211 | 17 ft | 4 kts | 0° |
| 2026-05-03 23:11 | 26.06845 | -80.14211 | 18 ft | 3 kts | 0° |
| 2026-05-03 23:11 | 26.06825 | -80.14210 | 17 ft | 4 kts | 321° |
| 2026-05-03 23:12 | 26.06817 | -80.14189 | 19 ft | 4 kts | 270° |
| 2026-05-03 23:12 | 26.06817 | -80.14172 | 17 ft | 0 kts | 270° |
| 2026-05-03 23:17 | 26.06817 | -80.14173 | 17 ft | 0 kts | 270° |
| 2026-05-03 23:17 | 26.06816 | -80.14195 | 17 ft | 6 kts | 268° |
| 2026-05-03 23:18 | 26.06791 | -80.14268 | 16 ft | 14 kts | 238° |
| 2026-05-03 23:18 | 26.06772 | -80.14394 | 15 ft | 18 kts | 271° |
| 2026-05-03 23:18 | 26.06766 | -80.14546 | 15 ft | 20 kts | 266° |
| 2026-05-03 23:18 | 26.06766 | -80.14701 | 15 ft | 20 kts | 270° |
| 2026-05-03 23:19 | 26.06766 | -80.14858 | 15 ft | 20 kts | 270° |
| 2026-05-03 23:19 | 26.06767 | -80.15015 | 16 ft | 20 kts | 270° |
| 2026-05-03 23:19 | 26.06719 | -80.15136 | 21 ft | 16 kts | 224° |
| 2026-05-03 23:19 | 26.06695 | -80.15245 | 19 ft | 16 kts | 271° |
| 2026-05-03 23:20 | 26.06696 | -80.15365 | 16 ft | 6 kts | 271° |
| 2026-05-03 23:20 | 26.06696 | -80.15380 | 16 ft | 0 kts | 271° |
| 2026-05-03 23:25 | 26.06696 | -80.15383 | 16 ft | 0 kts | 271° |
| 2026-05-03 23:36 | 26.06696 | -80.15394 | 16 ft | 3 kts | 271° |
| 2026-05-03 23:36 | 26.06696 | -80.15406 | 16 ft | 0 kts | 271° |
| 2026-05-03 23:38 | 26.06697 | -80.15424 | 16 ft | 3 kts | 271° |
| 2026-05-03 23:46 | 26.06697 | -80.15425 | 16 ft | 0 kts | 271° |
| 2026-05-03 23:46 | 26.06697 | -80.15427 | 16 ft | 1 kts | 271° |
| 2026-05-03 23:46 | 26.06697 | -80.15437 | 16 ft | 2 kts | 271° |
| 2026-05-03 23:47 | 26.06697 | -80.15460 | 16 ft | 5 kts | 271° |
| 2026-05-03 23:47 | 26.06698 | -80.15516 | 16 ft | 9 kts | 271° |
| 2026-05-03 23:47 | 26.06698 | -80.15542 | 16 ft | 2 kts | 271° |
| 2026-05-03 23:47 | 26.06699 | -80.15565 | 16 ft | 6 kts | 271° |
| 2026-05-03 23:48 | 26.06699 | -80.15626 | 16 ft | 11 kts | 271° |
| 2026-05-03 23:48 | 26.06700 | -80.15636 | 16 ft | 1 kts | 271° |
| 2026-05-03 23:48 | 26.06700 | -80.15650 | 16 ft | 0 kts | 271° |
| 2026-05-03 23:51 | 26.06700 | -80.15652 | 16 ft | 0 kts | 271° |
| 2026-05-03 23:51 | 26.06700 | -80.15657 | 16 ft | 2 kts | 271° |
| 2026-05-03 23:52 | 26.06700 | -80.15676 | 16 ft | 5 kts | 269° |
| 2026-05-03 23:52 | 26.06700 | -80.15704 | 16 ft | 2 kts | 269° |
| 2026-05-03 23:52 | 26.06700 | -80.15716 | 16 ft | 0 kts | 269° |
| 2026-05-03 23:52 | 26.06700 | -80.15738 | 16 ft | 5 kts | 269° |
| 2026-05-03 23:53 | 26.06699 | -80.15776 | 16 ft | 0 kts | 270° |
| 2026-05-03 23:56 | 26.06699 | -80.15777 | 16 ft | 1 kts | 270° |
| 2026-05-03 23:56 | 26.06698 | -80.15789 | 16 ft | 4 kts | 258° |
| 2026-05-03 23:56 | 26.06684 | -80.15810 | 17 ft | 0 kts | 223° |
| 2026-05-03 23:58 | 26.06683 | -80.15811 | 18 ft | 2 kts | 221° |
| 2026-05-03 23:58 | 26.06602 | -80.15805 | 18 ft | 20 kts | 142° |
| 2026-05-03 23:58 | 26.06589 | -80.15704 | 21 ft | 1 kts | 92° |
| 2026-05-03 23:59 | 26.06589 | -80.15705 | 21 ft | 0 kts | 92° |
| 2026-05-03 23:59 | 26.06589 | -80.15667 | 22 ft | 26 kts | 90° |
| 2026-05-03 23:59 | 26.06587 | -80.15181 | 21 ft | 97 kts | 90° |
| 2026-05-03 23:59 | 26.06579 | -80.14212 | 60 ft | 150 kts | 90° |
| 2026-05-04 00:00 | 26.06575 | -80.12952 | 447 ft | 165 kts | 89° |
| 2026-05-04 00:00 | 26.06549 | -80.11657 | 998 ft | 169 kts | 87° |
| 2026-05-04 00:00 | 26.06573 | -80.10329 | 1618 ft | 179 kts | 86° |
| 2026-05-04 00:00 | 26.06608 | -80.08877 | 1883 ft | 197 kts | 87° |
| 2026-05-04 00:01 | 26.06641 | -80.07284 | 2018 ft | 215 kts | 88° |
| 2026-05-04 00:01 | 26.06670 | -80.05538 | 2113 ft | 238 kts | 88° |
| 2026-05-04 00:01 | 26.06694 | -80.03633 | 2348 ft | 259 kts | 89° |
| 2026-05-04 00:01 | 26.06774 | -80.01586 | 2847 ft | 268 kts | 78° |
| 2026-05-04 00:02 | 26.07533 | -79.99705 | 3440 ft | 271 kts | 51° |
| 2026-05-04 00:02 | 26.08740 | -79.98064 | 4042 ft | 276 kts | 49° |
| 2026-05-04 00:02 | 26.09977 | -79.96406 | 4665 ft | 281 kts | 49° |
| 2026-05-04 00:02 | 26.11236 | -79.94719 | 5237 ft | 286 kts | 49° |
| 2026-05-04 00:03 | 26.12515 | -79.92999 | 5824 ft | 290 kts | 49° |
| 2026-05-04 00:03 | 26.13809 | -79.91252 | 6421 ft | 295 kts | 49° |
| 2026-05-04 00:03 | 26.15121 | -79.89478 | 6985 ft | 298 kts | 49° |
| 2026-05-04 00:03 | 26.16427 | -79.87672 | 7563 ft | 302 kts | 51° |
| 2026-05-04 00:04 | 26.17690 | -79.85793 | 8158 ft | 305 kts | 52° |
| 2026-05-04 00:04 | 26.18937 | -79.83868 | 8762 ft | 308 kts | 53° |
| 2026-05-04 00:04 | 26.20184 | -79.81915 | 9343 ft | 311 kts | 53° |
| 2026-05-04 00:04 | 26.21446 | -79.79941 | 9905 ft | 315 kts | 52° |
| 2026-05-04 00:05 | 26.22738 | -79.77933 | 10287 ft | 326 kts | 52° |
| 2026-05-04 00:05 | 26.24104 | -79.75823 | 10390 ft | 346 kts | 52° |
| 2026-05-04 00:05 | 26.25550 | -79.73597 | 10529 ft | 364 kts | 52° |
| 2026-05-04 00:05 | 26.27058 | -79.71288 | 10636 ft | 382 kts | 52° |
| 2026-05-04 00:06 | 26.28674 | -79.68818 | 10791 ft | 397 kts | 51° |
| 2026-05-04 00:06 | 26.30473 | -79.66516 | 11171 ft | 402 kts | 44° |
| 2026-05-04 00:06 | 26.32434 | -79.64272 | 11657 ft | 406 kts | 44° |
| 2026-05-04 00:06 | 26.34410 | -79.62001 | 12147 ft | 410 kts | 44° |
| 2026-05-04 00:07 | 26.36401 | -79.59702 | 12637 ft | 414 kts | 44° |
| 2026-05-04 00:07 | 26.38405 | -79.57384 | 13128 ft | 417 kts | 44° |
| 2026-05-04 00:07 | 26.40434 | -79.55038 | 13613 ft | 421 kts | 44° |
| 2026-05-04 00:07 | 26.42479 | -79.52683 | 14065 ft | 425 kts | 44° |
| 2026-05-04 00:08 | 26.44547 | -79.50309 | 14500 ft | 429 kts | 44° |
| 2026-05-04 00:08 | 26.46632 | -79.47911 | 14942 ft | 432 kts | 44° |
| 2026-05-04 00:08 | 26.48737 | -79.45488 | 15397 ft | 436 kts | 44° |
| 2026-05-04 00:08 | 26.50853 | -79.43046 | 15810 ft | 440 kts | 44° |
| 2026-05-04 00:09 | 26.52988 | -79.40580 | 16237 ft | 444 kts | 44° |
| 2026-05-04 00:09 | 26.55230 | -79.38198 | 16676 ft | 445 kts | 37° |
| 2026-05-04 00:09 | 26.57766 | -79.36218 | 17114 ft | 445 kts | 28° |
| 2026-05-04 00:09 | 26.60427 | -79.34416 | 17538 ft | 449 kts | 28° |
| 2026-05-04 00:10 | 26.63072 | -79.32626 | 17976 ft | 452 kts | 28° |
| 2026-05-04 00:10 | 26.65770 | -79.30799 | 18384 ft | 455 kts | 28° |
| 2026-05-04 00:10 | 26.68488 | -79.28956 | 18728 ft | 458 kts | 28° |
| 2026-05-04 00:10 | 26.71226 | -79.27095 | 19068 ft | 461 kts | 28° |
| 2026-05-04 00:11 | 26.73975 | -79.25225 | 19415 ft | 464 kts | 28° |
| 2026-05-04 00:11 | 26.76740 | -79.23342 | 19765 ft | 467 kts | 27° |
| 2026-05-04 00:11 | 26.79529 | -79.21438 | 20086 ft | 470 kts | 27° |
| 2026-05-04 00:11 | 26.82325 | -79.19524 | 20416 ft | 473 kts | 27° |
| 2026-05-04 00:12 | 26.85141 | -79.17592 | 20746 ft | 476 kts | 27° |
| 2026-05-04 00:12 | 26.87973 | -79.15651 | 21067 ft | 478 kts | 27° |
| 2026-05-04 00:12 | 26.90827 | -79.13699 | 21377 ft | 481 kts | 27° |
| 2026-05-04 00:12 | 26.93691 | -79.11742 | 21692 ft | 484 kts | 27° |
| 2026-05-04 00:13 | 26.96571 | -79.09773 | 21996 ft | 486 kts | 27° |
| 2026-05-04 00:13 | 26.99466 | -79.07791 | 22297 ft | 489 kts | 27° |
| 2026-05-04 00:13 | 27.02378 | -79.05798 | 22594 ft | 492 kts | 27° |
| 2026-05-04 00:13 | 27.05304 | -79.03794 | 22930 ft | 494 kts | 27° |
| 2026-05-04 00:14 | 27.08201 | -79.01803 | 23224 ft | 496 kts | 27° |
| 2026-05-04 00:14 | 27.11149 | -78.99772 | 23527 ft | 499 kts | 27° |
| 2026-05-04 00:14 | 27.14116 | -78.97728 | 23786 ft | 501 kts | 27° |
| 2026-05-04 00:14 | 27.17096 | -78.95679 | 24036 ft | 503 kts | 27° |
| 2026-05-04 00:15 | 27.20087 | -78.93623 | 24295 ft | 505 kts | 27° |
| 2026-05-04 00:15 | 27.23090 | -78.91562 | 24547 ft | 507 kts | 27° |
| 2026-05-04 00:15 | 27.26109 | -78.89490 | 24797 ft | 509 kts | 27° |
| 2026-05-04 00:15 | 27.29135 | -78.87409 | 25044 ft | 511 kts | 27° |
| 2026-05-04 00:16 | 27.32171 | -78.85315 | 25282 ft | 513 kts | 27° |
| 2026-05-04 00:16 | 27.35219 | -78.83208 | 25523 ft | 515 kts | 27° |
| 2026-05-04 00:16 | 27.38349 | -78.81276 | 25756 ft | 512 kts | 19° |
| 2026-05-04 00:16 | 27.41663 | -78.79866 | 25988 ft | 507 kts | 11° |
| 2026-05-04 00:17 | 27.45084 | -78.79011 | 26218 ft | 501 kts | 2° |
| 2026-05-04 00:17 | 27.48546 | -78.78516 | 26459 ft | 502 kts | 1° |
| 2026-05-04 00:17 | 27.52019 | -78.78022 | 26703 ft | 504 kts | 1° |
| 2026-05-04 00:17 | 27.55505 | -78.77516 | 26938 ft | 506 kts | 1° |
| 2026-05-04 00:18 | 27.59001 | -78.77000 | 27206 ft | 507 kts | 1° |
| 2026-05-04 00:18 | 27.62501 | -78.76479 | 27553 ft | 508 kts | 0° |
| 2026-05-04 00:18 | 27.66009 | -78.75959 | 27752 ft | 510 kts | 0° |
| 2026-05-04 00:18 | 27.69534 | -78.75438 | 28027 ft | 511 kts | 0° |
| 2026-05-04 00:19 | 27.73070 | -78.74915 | 28326 ft | 511 kts | 0° |
| 2026-05-04 00:19 | 27.76603 | -78.74394 | 28637 ft | 511 kts | 0° |
| 2026-05-04 00:19 | 27.80125 | -78.73878 | 28944 ft | 511 kts | 0° |
| 2026-05-04 00:19 | 27.83608 | -78.73369 | 29244 ft | 511 kts | 360° |
| 2026-05-04 00:20 | 27.87139 | -78.72854 | 29550 ft | 511 kts | 360° |
| 2026-05-04 00:20 | 27.90664 | -78.72340 | 29898 ft | 511 kts | 360° |
| 2026-05-04 00:20 | 27.94213 | -78.71820 | 30101 ft | 514 kts | 359° |
| 2026-05-04 00:20 | 27.97767 | -78.71299 | 30298 ft | 516 kts | 359° |
| 2026-05-04 00:21 | 28.01325 | -78.70772 | 30536 ft | 516 kts | 359° |
| 2026-05-04 00:21 | 28.04887 | -78.70241 | 30788 ft | 516 kts | 359° |
| 2026-05-04 00:21 | 28.08445 | -78.69710 | 31042 ft | 516 kts | 359° |
| 2026-05-04 00:21 | 28.12005 | -78.69178 | 31291 ft | 515 kts | 359° |
| 2026-05-04 00:22 | 28.15555 | -78.68651 | 31545 ft | 515 kts | 359° |
| 2026-05-04 00:22 | 28.19107 | -78.68125 | 31802 ft | 514 kts | 359° |
| 2026-05-04 00:22 | 28.22655 | -78.67603 | 32068 ft | 515 kts | 358° |
| 2026-05-04 00:22 | 28.26210 | -78.67080 | 32286 ft | 515 kts | 358° |
| 2026-05-04 00:23 | 28.29765 | -78.66555 | 32520 ft | 515 kts | 358° |
| 2026-05-04 00:23 | 28.33318 | -78.66026 | 32760 ft | 515 kts | 358° |
| 2026-05-04 00:23 | 28.36868 | -78.65496 | 32992 ft | 515 kts | 358° |
| 2026-05-04 00:23 | 28.40418 | -78.64967 | 33063 ft | 515 kts | 358° |
| 2026-05-04 00:24 | 28.47521 | -78.63909 | 33092 ft | 514 kts | 358° |
| 2026-05-04 00:24 | 28.54620 | -78.62864 | 33091 ft | 514 kts | 357° |
| 2026-05-04 00:25 | 28.61669 | -78.61813 | 33093 ft | 514 kts | 357° |
| 2026-05-04 00:25 | 28.68768 | -78.60748 | 33096 ft | 514 kts | 357° |
| 2026-05-04 00:26 | 28.75869 | -78.59683 | 33103 ft | 515 kts | 357° |
| 2026-05-04 00:26 | 28.82971 | -78.58611 | 33113 ft | 515 kts | 357° |
| 2026-05-04 00:27 | 28.90076 | -78.57544 | 33114 ft | 515 kts | 357° |
| 2026-05-04 00:27 | 28.97189 | -78.56489 | 33116 ft | 515 kts | 357° |
| 2026-05-04 00:28 | 29.04297 | -78.55423 | 33123 ft | 516 kts | 357° |
| 2026-05-04 00:28 | 29.11397 | -78.54349 | 33096 ft | 512 kts | 357° |
| 2026-05-04 00:29 | 29.18432 | -78.53291 | 33098 ft | 513 kts | 357° |
| 2026-05-04 00:29 | 29.25514 | -78.52219 | 33109 ft | 514 kts | 357° |
| 2026-05-04 00:30 | 29.32602 | -78.51148 | 33117 ft | 514 kts | 356° |
| 2026-05-04 00:30 | 29.39700 | -78.50081 | 33146 ft | 514 kts | 357° |
| 2026-05-04 00:31 | 29.46803 | -78.48993 | 33147 ft | 514 kts | 357° |
| 2026-05-04 00:31 | 29.53812 | -78.47911 | 33141 ft | 512 kts | 355° |
| 2026-05-04 00:32 | 29.57291 | -78.47875 | 33145 ft | 490 kts | 341° |
| 2026-05-04 00:32 | 29.60664 | -78.48322 | 33175 ft | 488 kts | 341° |
| 2026-05-04 00:32 | 29.64036 | -78.48793 | 33364 ft | 490 kts | 341° |
| 2026-05-04 00:32 | 29.67428 | -78.49275 | 33510 ft | 491 kts | 341° |
| 2026-05-04 00:33 | 29.70824 | -78.49758 | 33635 ft | 493 kts | 341° |
| 2026-05-04 00:33 | 29.77664 | -78.50721 | 33906 ft | 495 kts | 340° |
| 2026-05-04 00:33 | 29.81086 | -78.51200 | 34041 ft | 496 kts | 340° |
| 2026-05-04 00:34 | 29.84518 | -78.51680 | 34168 ft | 497 kts | 340° |
| 2026-05-04 00:34 | 29.87910 | -78.52152 | 34279 ft | 497 kts | 340° |
| 2026-05-04 00:34 | 29.91349 | -78.52628 | 34444 ft | 498 kts | 341° |
| 2026-05-04 00:34 | 29.94784 | -78.53098 | 34573 ft | 498 kts | 341° |
| 2026-05-04 00:35 | 29.98222 | -78.53570 | 34692 ft | 498 kts | 340° |
| 2026-05-04 00:35 | 30.01665 | -78.54046 | 34811 ft | 498 kts | 340° |
| 2026-05-04 00:35 | 30.05101 | -78.54526 | 34927 ft | 498 kts | 340° |
| 2026-05-04 00:35 | 30.08544 | -78.55011 | 35077 ft | 497 kts | 340° |
| 2026-05-04 00:36 | 30.11986 | -78.55499 | 35139 ft | 499 kts | 340° |
| 2026-05-04 00:36 | 30.15492 | -78.55737 | 35137 ft | 514 kts | 350° |
| 2026-05-04 00:36 | 30.19108 | -78.55355 | 35144 ft | 526 kts | 356° |
| 2026-05-04 00:37 | 30.26377 | -78.54290 | 35147 ft | 526 kts | 356° |
| 2026-05-04 00:37 | 30.33643 | -78.53238 | 35148 ft | 526 kts | 356° |
| 2026-05-04 00:38 | 30.40915 | -78.52191 | 35144 ft | 526 kts | 355° |
| 2026-05-04 00:38 | 30.48192 | -78.51098 | 35181 ft | 528 kts | 356° |
| 2026-05-04 00:39 | 30.55482 | -78.49889 | 35171 ft | 529 kts | 357° |
| 2026-05-04 00:39 | 30.62773 | -78.48666 | 35174 ft | 529 kts | 357° |
| 2026-05-04 00:40 | 30.70013 | -78.47487 | 35175 ft | 529 kts | 357° |
| 2026-05-04 00:40 | 30.77294 | -78.46311 | 35141 ft | 525 kts | 357° |
| 2026-05-04 00:41 | 30.84524 | -78.45132 | 35147 ft | 524 kts | 357° |
| 2026-05-04 00:41 | 30.91759 | -78.43957 | 35159 ft | 525 kts | 357° |
| 2026-05-04 00:42 | 30.99003 | -78.42776 | 35168 ft | 526 kts | 357° |
| 2026-05-04 00:42 | 31.06245 | -78.41588 | 35169 ft | 524 kts | 357° |
| 2026-05-04 00:43 | 31.13470 | -78.40405 | 35176 ft | 524 kts | 357° |
| 2026-05-04 00:43 | 31.20694 | -78.39221 | 35179 ft | 525 kts | 357° |
| 2026-05-04 00:44 | 31.27922 | -78.38029 | 35216 ft | 525 kts | 357° |
| 2026-05-04 00:44 | 31.35077 | -78.36851 | 35166 ft | 521 kts | 358° |
| 2026-05-04 00:45 | 31.42181 | -78.35687 | 35177 ft | 521 kts | 358° |
| 2026-05-04 00:45 | 31.49367 | -78.34504 | 35187 ft | 522 kts | 358° |
| 2026-05-04 00:46 | 31.56555 | -78.33314 | 35175 ft | 520 kts | 358° |
| 2026-05-04 00:46 | 31.63691 | -78.32124 | 35160 ft | 517 kts | 358° |
| 2026-05-04 00:47 | 31.70824 | -78.30942 | 35167 ft | 518 kts | 358° |
| 2026-05-04 00:47 | 31.77968 | -78.29767 | 35178 ft | 519 kts | 358° |
| 2026-05-04 00:48 | 31.83919 | -78.28774 | 35201 ft | 519 kts | 359° |
| 2026-05-04 00:48 | 31.91079 | -78.27583 | 35191 ft | 520 kts | 359° |
| 2026-05-04 00:49 | 31.98244 | -78.26388 | 35194 ft | 520 kts | 358° |
| 2026-05-04 00:49 | 32.05418 | -78.25209 | 35193 ft | 519 kts | 358° |
| 2026-05-04 00:50 | 32.12569 | -78.24143 | 35151 ft | 515 kts | 357° |
| 2026-05-04 00:50 | 32.19694 | -78.23159 | 35155 ft | 516 kts | 357° |
| 2026-05-04 00:51 | 32.26824 | -78.22150 | 35166 ft | 517 kts | 358° |
| 2026-05-04 00:51 | 32.33922 | -78.21103 | 35209 ft | 518 kts | 358° |
| 2026-05-04 00:52 | 32.41078 | -78.20036 | 35198 ft | 518 kts | 358° |
| 2026-05-04 00:52 | 32.48238 | -78.18976 | 35192 ft | 518 kts | 358° |
| 2026-05-04 00:53 | 32.55400 | -78.17924 | 35187 ft | 518 kts | 358° |
| 2026-05-04 00:53 | 32.62557 | -78.16891 | 35170 ft | 517 kts | 358° |
| 2026-05-04 00:54 | 32.69684 | -78.15833 | 35165 ft | 516 kts | 358° |
| 2026-05-04 00:54 | 32.76823 | -78.14762 | 35172 ft | 517 kts | 358° |
| 2026-05-04 00:55 | 32.83914 | -78.13717 | 35175 ft | 517 kts | 358° |
| 2026-05-04 00:55 | 32.91058 | -78.12659 | 35176 ft | 517 kts | 358° |
| 2026-05-04 00:56 | 32.98205 | -78.11598 | 35178 ft | 518 kts | 358° |
| 2026-05-04 00:56 | 33.05365 | -78.10527 | 35179 ft | 518 kts | 358° |
| 2026-05-04 00:57 | 33.12513 | -78.09464 | 35215 ft | 517 kts | 358° |
| 2026-05-04 00:57 | 33.19610 | -78.08403 | 35138 ft | 512 kts | 358° |
| 2026-05-04 00:58 | 33.26689 | -78.07344 | 35142 ft | 513 kts | 358° |
| 2026-05-04 00:58 | 33.33788 | -78.06285 | 35150 ft | 514 kts | 358° |
| 2026-05-04 00:59 | 33.40889 | -78.05224 | 35176 ft | 514 kts | 358° |
| 2026-05-04 00:59 | 33.47992 | -78.04159 | 35166 ft | 514 kts | 358° |
| 2026-05-04 01:00 | 33.55092 | -78.03081 | 35159 ft | 514 kts | 358° |
| 2026-05-04 01:00 | 33.62188 | -78.02007 | 35161 ft | 514 kts | 358° |
| 2026-05-04 01:01 | 33.69260 | -78.00940 | 35130 ft | 510 kts | 358° |
| 2026-05-04 01:01 | 33.76297 | -77.99874 | 35136 ft | 510 kts | 358° |
| 2026-05-04 01:02 | 33.83300 | -77.98821 | 35145 ft | 511 kts | 358° |
| 2026-05-04 01:02 | 33.90252 | -77.98068 | 35178 ft | 502 kts | 352° |
| 2026-05-04 01:03 | 33.97214 | -77.97806 | 35150 ft | 499 kts | 351° |
| 2026-05-04 01:03 | 34.04167 | -77.97559 | 35149 ft | 500 kts | 351° |
| 2026-05-04 01:04 | 34.11116 | -77.97322 | 35150 ft | 500 kts | 351° |
| 2026-05-04 01:04 | 34.18073 | -77.97064 | 35129 ft | 495 kts | 352° |
| 2026-05-04 01:05 | 34.24939 | -77.96800 | 35133 ft | 493 kts | 351° |
| 2026-05-04 01:05 | 34.31798 | -77.96560 | 35144 ft | 493 kts | 351° |
| 2026-05-04 01:06 | 34.38672 | -77.96328 | 35149 ft | 494 kts | 351° |
| 2026-05-04 01:06 | 34.45542 | -77.96069 | 35127 ft | 493 kts | 352° |
| 2026-05-04 01:07 | 34.52394 | -77.95809 | 35131 ft | 493 kts | 352° |
| 2026-05-04 01:07 | 34.59202 | -77.95572 | 35132 ft | 493 kts | 352° |
| 2026-05-04 01:08 | 34.66069 | -77.95321 | 35170 ft | 493 kts | 352° |
| 2026-05-04 01:08 | 34.72912 | -77.95065 | 35126 ft | 491 kts | 352° |
| 2026-05-04 01:09 | 34.79750 | -77.94817 | 35132 ft | 491 kts | 352° |
| 2026-05-04 01:09 | 34.86589 | -77.94571 | 35144 ft | 492 kts | 352° |
| 2026-05-04 01:10 | 34.93435 | -77.94322 | 35128 ft | 491 kts | 352° |
| 2026-05-04 01:10 | 35.00211 | -77.94065 | 35126 ft | 490 kts | 352° |
| 2026-05-04 01:11 | 35.07036 | -77.93825 | 35145 ft | 491 kts | 352° |
| 2026-05-04 01:11 | 35.13869 | -77.93582 | 35147 ft | 492 kts | 352° |
| 2026-05-04 01:12 | 35.20703 | -77.93319 | 35124 ft | 489 kts | 352° |
| 2026-05-04 01:12 | 35.27509 | -77.93060 | 35120 ft | 490 kts | 352° |
| 2026-05-04 01:13 | 35.34282 | -77.93117 | 35125 ft | 482 kts | 346° |
| 2026-05-04 01:13 | 35.40979 | -77.93677 | 35152 ft | 482 kts | 346° |
| 2026-05-04 01:14 | 35.47636 | -77.94230 | 35155 ft | 482 kts | 346° |
| 2026-05-04 01:14 | 35.54334 | -77.94788 | 35152 ft | 483 kts | 346° |
| 2026-05-04 01:15 | 35.61041 | -77.95338 | 35148 ft | 483 kts | 346° |
| 2026-05-04 01:15 | 35.67734 | -77.95889 | 35100 ft | 477 kts | 347° |
| 2026-05-04 01:16 | 35.74337 | -77.96434 | 35111 ft | 475 kts | 347° |
| 2026-05-04 01:16 | 35.80931 | -77.96983 | 35118 ft | 474 kts | 347° |
| 2026-05-04 01:17 | 35.87516 | -77.97542 | 35104 ft | 474 kts | 347° |
| 2026-05-04 01:17 | 35.94061 | -77.98094 | 35102 ft | 472 kts | 347° |
| 2026-05-04 01:18 | 36.00621 | -77.98640 | 35109 ft | 473 kts | 347° |
| 2026-05-04 01:18 | 36.07187 | -77.99186 | 35118 ft | 473 kts | 347° |
| 2026-05-04 01:19 | 36.13763 | -77.99746 | 35125 ft | 473 kts | 347° |
| 2026-05-04 01:19 | 36.20315 | -78.00300 | 35099 ft | 470 kts | 347° |
| 2026-05-04 01:20 | 36.26849 | -78.00848 | 35099 ft | 471 kts | 347° |
| 2026-05-04 01:20 | 36.33387 | -78.01405 | 35107 ft | 471 kts | 347° |
| 2026-05-04 01:21 | 36.39974 | -78.01248 | 35133 ft | 489 kts | 2° |
| 2026-05-04 01:21 | 36.46669 | -77.99506 | 35120 ft | 492 kts | 3° |
| 2026-05-04 01:22 | 36.53357 | -77.97743 | 35109 ft | 491 kts | 3° |
| 2026-05-04 01:22 | 36.60045 | -77.95988 | 35183 ft | 491 kts | 3° |
| 2026-05-04 01:23 | 36.66720 | -77.94233 | 35156 ft | 487 kts | 3° |
| 2026-05-04 01:23 | 36.73353 | -77.92477 | 35151 ft | 487 kts | 3° |
| 2026-05-04 01:24 | 36.79991 | -77.90732 | 35144 ft | 488 kts | 3° |
| 2026-05-04 01:24 | 36.86637 | -77.88997 | 35138 ft | 488 kts | 2° |
| 2026-05-04 01:25 | 36.93261 | -77.87251 | 35087 ft | 485 kts | 2° |
| 2026-05-04 01:25 | 36.99871 | -77.85500 | 35094 ft | 486 kts | 2° |
| 2026-05-04 01:26 | 37.06441 | -77.83758 | 35099 ft | 486 kts | 2° |
| 2026-05-04 01:26 | 37.13046 | -77.82011 | 35080 ft | 483 kts | 2° |
| 2026-05-04 01:27 | 37.19616 | -77.80256 | 35099 ft | 483 kts | 2° |
| 2026-05-04 01:27 | 37.26194 | -77.78503 | 35105 ft | 484 kts | 2° |
| 2026-05-04 01:28 | 37.32781 | -77.76744 | 35133 ft | 484 kts | 2° |
| 2026-05-04 01:28 | 37.39376 | -77.74973 | 35124 ft | 485 kts | 2° |
| 2026-05-04 01:29 | 37.45979 | -77.73196 | 35120 ft | 485 kts | 2° |
| 2026-05-04 01:29 | 37.52539 | -77.70935 | 35103 ft | 500 kts | 15° |
| 2026-05-04 01:29 | 37.55655 | -77.68876 | 35142 ft | 512 kts | 24° |
| 2026-05-04 01:30 | 37.58664 | -77.66453 | 35108 ft | 513 kts | 25° |
| 2026-05-04 01:30 | 37.64674 | -77.61576 | 35096 ft | 514 kts | 25° |
| 2026-05-04 01:31 | 37.70691 | -77.56685 | 35106 ft | 515 kts | 24° |
| 2026-05-04 01:31 | 37.76677 | -77.51817 | 35106 ft | 515 kts | 24° |
| 2026-05-04 01:32 | 37.82713 | -77.46910 | 35106 ft | 516 kts | 24° |
| 2026-05-04 01:32 | 37.88749 | -77.42000 | 35103 ft | 516 kts | 24° |
| 2026-05-04 01:33 | 37.94775 | -77.37070 | 35097 ft | 517 kts | 25° |
| 2026-05-04 01:33 | 38.00823 | -77.32122 | 35078 ft | 516 kts | 24° |
| 2026-05-04 01:34 | 38.06854 | -77.27200 | 35077 ft | 516 kts | 24° |
| 2026-05-04 01:34 | 38.12893 | -77.22265 | 35075 ft | 516 kts | 24° |
| 2026-05-04 01:35 | 38.18926 | -77.17305 | 35121 ft | 517 kts | 24° |
| 2026-05-04 01:35 | 38.24954 | -77.12338 | 35068 ft | 515 kts | 24° |
| 2026-05-04 01:36 | 38.30920 | -77.07353 | 35066 ft | 518 kts | 26° |
| 2026-05-04 01:36 | 38.36751 | -77.01869 | 35071 ft | 523 kts | 30° |
| 2026-05-04 01:37 | 38.42477 | -76.96121 | 35069 ft | 523 kts | 30° |
| 2026-05-04 01:37 | 38.48221 | -76.90436 | 35067 ft | 522 kts | 29° |
| 2026-05-04 01:38 | 38.54023 | -76.84854 | 35071 ft | 522 kts | 28° |
| 2026-05-04 01:38 | 38.59798 | -76.79319 | 35074 ft | 522 kts | 28° |
| 2026-05-04 01:39 | 38.65593 | -76.73709 | 35059 ft | 521 kts | 29° |
| 2026-05-04 01:39 | 38.70427 | -76.68997 | 35063 ft | 522 kts | 29° |
| 2026-05-04 01:40 | 38.76172 | -76.63390 | 35063 ft | 523 kts | 29° |
| 2026-05-04 01:40 | 38.81959 | -76.57730 | 35089 ft | 523 kts | 30° |
| 2026-05-04 01:41 | 38.87723 | -76.52077 | 35061 ft | 521 kts | 30° |
| 2026-05-04 01:41 | 38.93446 | -76.46463 | 35068 ft | 522 kts | 29° |
| 2026-05-04 01:42 | 38.99223 | -76.40796 | 35067 ft | 523 kts | 29° |
| 2026-05-04 01:42 | 39.04946 | -76.35034 | 35038 ft | 522 kts | 33° |
| 2026-05-04 01:42 | 39.07701 | -76.31977 | 34774 ft | 526 kts | 34° |
| 2026-05-04 01:43 | 39.10434 | -76.28773 | 33844 ft | 533 kts | 36° |
| 2026-05-04 01:43 | 39.13106 | -76.25515 | 33253 ft | 527 kts | 37° |
| 2026-05-04 01:43 | 39.15754 | -76.22258 | 32572 ft | 524 kts | 37° |
| 2026-05-04 01:43 | 39.18403 | -76.19041 | 31843 ft | 522 kts | 36° |
| 2026-05-04 01:44 | 39.21059 | -76.15876 | 31103 ft | 517 kts | 35° |
| 2026-05-04 01:44 | 39.23696 | -76.12778 | 29646 ft | 510 kts | 34° |
| 2026-05-04 01:44 | 39.26331 | -76.09725 | 28215 ft | 507 kts | 34° |
| 2026-05-04 01:44 | 39.28936 | -76.06715 | 27591 ft | 502 kts | 34° |
| 2026-05-04 01:45 | 39.31526 | -76.03706 | 27290 ft | 498 kts | 35° |
| 2026-05-04 01:45 | 39.34040 | -76.00760 | 26502 ft | 490 kts | 35° |
| 2026-05-04 01:45 | 39.39119 | -75.94778 | 24065 ft | 494 kts | 36° |
| 2026-05-04 01:46 | 39.41645 | -75.91776 | 23837 ft | 481 kts | 36° |
| 2026-05-04 01:46 | 39.44089 | -75.88868 | 23602 ft | 476 kts | 36° |
| 2026-05-04 01:46 | 39.46490 | -75.86020 | 23329 ft | 473 kts | 36° |
| 2026-05-04 01:46 | 39.48912 | -75.83156 | 23043 ft | 470 kts | 36° |
| 2026-05-04 01:47 | 39.51323 | -75.80312 | 22807 ft | 468 kts | 36° |
| 2026-05-04 01:47 | 39.53723 | -75.77481 | 22402 ft | 465 kts | 36° |
| 2026-05-04 01:47 | 39.56104 | -75.74663 | 22002 ft | 462 kts | 36° |
| 2026-05-04 01:47 | 39.58470 | -75.71855 | 21604 ft | 459 kts | 36° |
| 2026-05-04 01:48 | 39.60813 | -75.69067 | 21211 ft | 455 kts | 37° |
| 2026-05-04 01:48 | 39.63131 | -75.66299 | 20818 ft | 451 kts | 37° |
| 2026-05-04 01:48 | 39.65428 | -75.63548 | 20430 ft | 448 kts | 37° |
| 2026-05-04 01:48 | 39.67709 | -75.60814 | 20039 ft | 444 kts | 37° |
| 2026-05-04 01:49 | 39.69974 | -75.58103 | 19594 ft | 441 kts | 37° |
| 2026-05-04 01:49 | 39.72219 | -75.55414 | 19144 ft | 437 kts | 37° |
| 2026-05-04 01:49 | 39.74444 | -75.52737 | 18707 ft | 433 kts | 38° |
| 2026-05-04 01:49 | 39.76643 | -75.50084 | 18271 ft | 430 kts | 38° |
| 2026-05-04 01:50 | 39.78828 | -75.47448 | 17800 ft | 426 kts | 38° |
| 2026-05-04 01:50 | 39.80996 | -75.44833 | 17392 ft | 423 kts | 38° |
| 2026-05-04 01:50 | 39.83143 | -75.42237 | 16965 ft | 420 kts | 38° |
| 2026-05-04 01:50 | 39.85251 | -75.39690 | 16540 ft | 418 kts | 38° |
| 2026-05-04 01:51 | 39.87370 | -75.37127 | 16125 ft | 415 kts | 38° |
| 2026-05-04 01:51 | 39.89474 | -75.34579 | 15704 ft | 412 kts | 38° |
| 2026-05-04 01:51 | 39.91544 | -75.32069 | 15452 ft | 400 kts | 38° |
| 2026-05-04 01:51 | 39.93538 | -75.29642 | 15332 ft | 385 kts | 38° |
| 2026-05-04 01:52 | 39.95457 | -75.27300 | 15191 ft | 370 kts | 38° |
| 2026-05-04 01:52 | 39.97301 | -75.25049 | 15092 ft | 356 kts | 39° |
| 2026-05-04 01:52 | 39.99077 | -75.22882 | 14966 ft | 343 kts | 39° |
| 2026-05-04 01:52 | 40.00791 | -75.20795 | 14833 ft | 331 kts | 38° |
| 2026-05-04 01:53 | 40.02459 | -75.18765 | 14610 ft | 324 kts | 38° |
| 2026-05-04 01:53 | 40.04099 | -75.16773 | 14266 ft | 321 kts | 39° |
| 2026-05-04 01:53 | 40.05726 | -75.14796 | 13906 ft | 319 kts | 39° |
| 2026-05-04 01:53 | 40.07343 | -75.12826 | 13523 ft | 316 kts | 39° |
| 2026-05-04 01:54 | 40.08924 | -75.10896 | 13150 ft | 314 kts | 39° |
| 2026-05-04 01:54 | 40.10512 | -75.08955 | 12780 ft | 311 kts | 39° |
| 2026-05-04 01:54 | 40.12082 | -75.07035 | 12403 ft | 306 kts | 39° |
| 2026-05-04 01:54 | 40.13619 | -75.05149 | 11704 ft | 300 kts | 39° |
| 2026-05-04 01:55 | 40.15126 | -75.03292 | 11006 ft | 295 kts | 38° |
| 2026-05-04 01:55 | 40.16607 | -75.01474 | 10339 ft | 289 kts | 38° |
| 2026-05-04 01:55 | 40.18065 | -74.99688 | 9683 ft | 287 kts | 38° |
| 2026-05-04 01:55 | 40.19503 | -74.97926 | 9513 ft | 281 kts | 38° |
| 2026-05-04 01:56 | 40.20926 | -74.96178 | 9381 ft | 281 kts | 38° |
| 2026-05-04 01:56 | 40.22352 | -74.94430 | 9209 ft | 280 kts | 38° |
| 2026-05-04 01:56 | 40.23774 | -74.92687 | 8963 ft | 280 kts | 38° |
| 2026-05-04 01:56 | 40.25188 | -74.90949 | 8701 ft | 279 kts | 38° |
| 2026-05-04 01:57 | 40.26544 | -74.89188 | 8452 ft | 280 kts | 40° |
| 2026-05-04 01:57 | 40.27875 | -74.87344 | 8196 ft | 280 kts | 41° |
| 2026-05-04 01:57 | 40.29197 | -74.85464 | 7949 ft | 280 kts | 42° |
| 2026-05-04 01:57 | 40.30495 | -74.83608 | 7888 ft | 281 kts | 42° |
| 2026-05-04 01:58 | 40.31818 | -74.81722 | 7801 ft | 281 kts | 42° |
| 2026-05-04 01:58 | 40.33141 | -74.79842 | 7704 ft | 281 kts | 41° |
| 2026-05-04 01:58 | 40.34468 | -74.77963 | 7617 ft | 281 kts | 41° |
| 2026-05-04 01:58 | 40.35798 | -74.76078 | 7511 ft | 282 kts | 41° |
| 2026-05-04 01:59 | 40.37129 | -74.74198 | 7409 ft | 282 kts | 41° |
| 2026-05-04 01:59 | 40.38466 | -74.72315 | 7311 ft | 282 kts | 41° |
| 2026-05-04 01:59 | 40.39802 | -74.70434 | 7212 ft | 282 kts | 41° |
| 2026-05-04 01:59 | 40.41158 | -74.68581 | 7107 ft | 279 kts | 35° |
| 2026-05-04 02:00 | 40.42733 | -74.67164 | 7011 ft | 271 kts | 20° |
| 2026-05-04 02:00 | 40.44483 | -74.66354 | 6897 ft | 264 kts | 6° |
| 2026-05-04 02:00 | 40.46282 | -74.65878 | 6814 ft | 264 kts | 5° |
| 2026-05-04 02:00 | 40.48079 | -74.65398 | 6721 ft | 263 kts | 6° |
| 2026-05-04 02:01 | 40.49875 | -74.64917 | 6632 ft | 263 kts | 5° |
| 2026-05-04 02:01 | 40.51646 | -74.64443 | 6544 ft | 263 kts | 5° |
| 2026-05-04 02:01 | 40.53440 | -74.63964 | 6477 ft | 263 kts | 5° |
| 2026-05-04 02:01 | 40.55240 | -74.63486 | 6382 ft | 263 kts | 5° |
| 2026-05-04 02:02 | 40.57037 | -74.63006 | 6284 ft | 263 kts | 5° |
| 2026-05-04 02:02 | 40.58829 | -74.62525 | 6192 ft | 263 kts | 5° |
| 2026-05-04 02:02 | 40.60620 | -74.62044 | 6100 ft | 263 kts | 5° |
| 2026-05-04 02:02 | 40.62411 | -74.61566 | 6008 ft | 262 kts | 5° |
| 2026-05-04 02:03 | 40.64200 | -74.61088 | 5915 ft | 262 kts | 6° |
| 2026-05-04 02:03 | 40.65989 | -74.60609 | 5829 ft | 262 kts | 5° |
| 2026-05-04 02:03 | 40.67774 | -74.60132 | 5739 ft | 262 kts | 6° |
| 2026-05-04 02:03 | 40.69560 | -74.59653 | 5648 ft | 262 kts | 6° |
| 2026-05-04 02:04 | 40.71343 | -74.59171 | 5554 ft | 261 kts | 6° |
| 2026-05-04 02:04 | 40.73125 | -74.58687 | 5465 ft | 261 kts | 6° |
| 2026-05-04 02:04 | 40.74904 | -74.58204 | 5379 ft | 261 kts | 5° |
| 2026-05-04 02:04 | 40.76700 | -74.57734 | 5091 ft | 262 kts | 5° |
| 2026-05-04 02:05 | 40.78476 | -74.57271 | 5021 ft | 260 kts | 5° |
| 2026-05-04 02:05 | 40.80255 | -74.56789 | 5028 ft | 262 kts | 5° |
| 2026-05-04 02:05 | 40.82039 | -74.56292 | 5030 ft | 262 kts | 6° |
| 2026-05-04 02:05 | 40.83821 | -74.55780 | 5027 ft | 263 kts | 6° |
| 2026-05-04 02:06 | 40.85605 | -74.55190 | 5032 ft | 267 kts | 16° |
| 2026-05-04 02:06 | 40.87119 | -74.53811 | 5032 ft | 280 kts | 44° |
| 2026-05-04 02:06 | 40.88058 | -74.51561 | 5030 ft | 290 kts | 71° |
| 2026-05-04 02:06 | 40.88488 | -74.48941 | 5037 ft | 293 kts | 77° |
| 2026-05-04 02:07 | 40.88830 | -74.46284 | 5001 ft | 292 kts | 77° |
| 2026-05-04 02:07 | 40.89158 | -74.43639 | 4657 ft | 291 kts | 78° |
| 2026-05-04 02:07 | 40.89490 | -74.41001 | 4296 ft | 290 kts | 78° |
| 2026-05-04 02:07 | 40.89827 | -74.38380 | 3912 ft | 289 kts | 78° |
| 2026-05-04 02:08 | 40.90165 | -74.35773 | 3589 ft | 287 kts | 77° |
| 2026-05-04 02:08 | 40.90504 | -74.33186 | 3289 ft | 284 kts | 78° |
| 2026-05-04 02:08 | 40.90845 | -74.30632 | 3046 ft | 280 kts | 78° |
| 2026-05-04 02:08 | 40.91194 | -74.28072 | 3027 ft | 285 kts | 77° |
| 2026-05-04 02:09 | 40.91550 | -74.25475 | 3031 ft | 287 kts | 77° |
| 2026-05-04 02:09 | 40.91912 | -74.22877 | 3032 ft | 287 kts | 77° |
| 2026-05-04 02:09 | 40.92272 | -74.20279 | 3028 ft | 286 kts | 77° |
| 2026-05-04 02:09 | 40.92627 | -74.17696 | 3028 ft | 286 kts | 78° |
| 2026-05-04 02:10 | 40.92991 | -74.15106 | 3025 ft | 287 kts | 77° |
| 2026-05-04 02:10 | 40.93355 | -74.12512 | 3018 ft | 287 kts | 77° |
| 2026-05-04 02:10 | 40.93519 | -74.09929 | 3013 ft | 288 kts | 98° |
| 2026-05-04 02:10 | 40.92789 | -74.07520 | 3012 ft | 284 kts | 131° |
| 2026-05-04 02:11 | 40.91301 | -74.05906 | 3015 ft | 273 kts | 161° |
| 2026-05-04 02:11 | 40.89582 | -74.05403 | 3016 ft | 246 kts | 188° |
| 2026-05-04 02:11 | 40.87990 | -74.05789 | 3013 ft | 223 kts | 202° |
| 2026-05-04 02:11 | 40.86553 | -74.06314 | 2993 ft | 207 kts | 204° |
| 2026-05-04 02:12 | 40.85188 | -74.06897 | 3013 ft | 205 kts | 206° |
| 2026-05-04 02:12 | 40.83845 | -74.07530 | 3020 ft | 205 kts | 207° |
| 2026-05-04 02:12 | 40.82502 | -74.08176 | 3023 ft | 205 kts | 206° |
| 2026-05-04 02:12 | 40.81160 | -74.08815 | 3013 ft | 205 kts | 205° |
| 2026-05-04 02:13 | 40.79736 | -74.09164 | 3019 ft | 213 kts | 187° |
| 2026-05-04 02:13 | 40.78242 | -74.08941 | 3019 ft | 220 kts | 170° |
| 2026-05-04 02:13 | 40.76833 | -74.08124 | 2787 ft | 225 kts | 151° |
| 2026-05-04 02:13 | 40.75656 | -74.06796 | 2477 ft | 225 kts | 141° |
| 2026-05-04 02:14 | 40.74364 | -74.05736 | 2185 ft | 215 kts | 167° |
| 2026-05-04 02:14 | 40.72931 | -74.05494 | 1895 ft | 202 kts | 191° |
| 2026-05-04 02:14 | 40.71653 | -74.05983 | 1657 ft | 181 kts | 212° |
| 2026-05-04 02:14 | 40.70723 | -74.06902 | 1413 ft | 158 kts | 230° |
| 2026-05-04 02:15 | 40.70124 | -74.08032 | 1221 ft | 145 kts | 245° |
| 2026-05-04 02:15 | 40.69813 | -74.09264 | 1019 ft | 140 kts | 259° |
| 2026-05-04 02:15 | 40.69773 | -74.10548 | 824 ft | 141 kts | 274° |
| 2026-05-04 02:15 | 40.69864 | -74.11833 | 640 ft | 141 kts | 273° |
| 2026-05-04 02:16 | 40.69949 | -74.13127 | 450 ft | 142 kts | 271° |
| 2026-05-04 02:16 | 40.70034 | -74.14416 | 259 ft | 141 kts | 272° |
| 2026-05-04 02:16 | 40.70121 | -74.15707 | 83 ft | 141 kts | 272° |
| 2026-05-04 02:16 | 40.70201 | -74.16908 | 22 ft | 113 kts | 275° |
| 2026-05-04 02:17 | 40.70243 | -74.17627 | 23 ft | 35 kts | 263° |
| 2026-05-04 02:17 | 40.70184 | -74.17829 | 24 ft | 8 kts | 249° |
| 2026-05-04 02:17 | 40.70161 | -74.17837 | 23 ft | 4 kts | 117° |
| 2026-05-04 02:17 | 40.70150 | -74.17772 | 22 ft | 11 kts | 96° |
| 2026-05-04 02:18 | 40.70145 | -74.17658 | 22 ft | 13 kts | 93° |
| 2026-05-04 02:18 | 40.70136 | -74.17535 | 22 ft | 14 kts | 95° |
| 2026-05-04 02:18 | 40.70127 | -74.17404 | 23 ft | 15 kts | 94° |
| 2026-05-04 02:18 | 40.70118 | -74.17264 | 22 ft | 16 kts | 95° |
| 2026-05-04 02:19 | 40.70109 | -74.17113 | 22 ft | 17 kts | 95° |
| 2026-05-04 02:19 | 40.70099 | -74.16952 | 22 ft | 18 kts | 95° |
| 2026-05-04 02:19 | 40.70081 | -74.16785 | 22 ft | 18 kts | 120° |
| 2026-05-04 02:19 | 40.69967 | -74.16755 | 22 ft | 18 kts | 185° |
| 2026-05-04 02:20 | 40.69839 | -74.16771 | 22 ft | 19 kts | 189° |
| 2026-05-04 02:20 | 40.69717 | -74.16839 | 22 ft | 19 kts | 204° |
| 2026-05-04 02:20 | 40.69592 | -74.16917 | 22 ft | 20 kts | 205° |
| 2026-05-04 02:20 | 40.69465 | -74.16999 | 22 ft | 21 kts | 207° |
| 2026-05-04 02:21 | 40.69332 | -74.17084 | 22 ft | 22 kts | 205° |
| 2026-05-04 02:21 | 40.69196 | -74.17172 | 22 ft | 22 kts | 207° |
| 2026-05-04 02:21 | 40.69056 | -74.17262 | 22 ft | 22 kts | 205° |
| 2026-05-04 02:21 | 40.68924 | -74.17345 | 22 ft | 20 kts | 205° |
| 2026-05-04 02:22 | 40.68801 | -74.17421 | 22 ft | 20 kts | 206° |
| 2026-05-04 02:22 | 40.68674 | -74.17502 | 22 ft | 21 kts | 205° |
| 2026-05-04 02:22 | 40.68622 | -74.17626 | 24 ft | 18 kts | 291° |
| 2026-05-04 02:22 | 40.68665 | -74.17783 | 22 ft | 18 kts | 286° |
| 2026-05-04 02:23 | 40.68757 | -74.17853 | 22 ft | 15 kts | 1° |
| 2026-05-04 02:23 | 40.68802 | -74.17809 | 22 ft | 5 kts | 91° |
| 2026-05-04 02:23 | 40.68798 | -74.17795 | 22 ft | 1 kts | 111° |
| 2026-05-04 02:23 | 40.68795 | -74.17785 | 22 ft | 2 kts | 113° |
| 2026-05-04 02:24 | 40.68793 | -74.17781 | 22 ft | 0 kts | 114° |